Wed 2018-02-21 08:16
Local weather stations in Arizona
KCGZ
Casa_Grande_Muni_Airport
Casa Grande, Casa Grande Municipal Airport, AZ, United States (KCGZ) 32-57N 111-46W
Feb 21, 2018 - 09:56 AM EST / 2018.02.21 1456 UTC
Wind: from the ENE (070 degrees) at 3 MPH (3 KT):0
Visibility: 10 mile(s):0
Temperature: 36.0 F (2.2 C)
Dew Point: 28.0 F (-2.2 C)
Relative Humidity: 72%
Pressure (altimeter): 30.1 in. Hg (1019 hPa)
Pressure tendency: 0.03 inches (1.0 hPa) higher than three hours ago
ob: KCGZ 211456Z AUTO 07003KT 10SM 02/M02 A3010 RMK AO2 SLP198 T00221022 51010 FZRANO 
cycle: 15
KRYN
Tucson/Ryan_Field
Station name not available
Feb 21, 2018 - 09:45 AM EST / 2018.02.21 1445 UTC
Wind: from the W (280 degrees) at 3 MPH (3 KT):0
Visibility: 10 mile(s):0
Sky conditions: partly cloudy
Temperature: 33 F (1 C)
Dew Point: 32 F (0 C)
Relative Humidity: 93%
Pressure (altimeter): 30.1 in. Hg (1019 hPa)
ob: KRYN 211445Z 28003KT 10SM SCT050 01/00 A3010 
cycle: 15
KDMA
Tucson/Davis-Monthan-AFB
Davis-Monthan Air Force Base, AZ, United States (KDMA) 32-10N 110-53W
Feb 21, 2018 - 09:56 AM EST / 2018.02.21 1456 UTC
Wind: from the SSE (160 degrees) at 5 MPH (4 KT):0
Visibility: 10 mile(s):0
Sky conditions: clear
Temperature: 37.0 F (2.8 C)
Dew Point: 32.7 F (0.4 C)
Relative Humidity: 84%
Pressure (altimeter): 30.07 in. Hg (1018 hPa)
Pressure tendency: 0.03 inches (1.1 hPa) higher than three hours ago
ob: KDMA 211456Z AUTO 16004KT 10SM CLR 03/00 A3007 RMK AO2 SLP181 T00280004 52011
cycle: 15
KOLS
Nogales-Intl_Airport
NOGALES INTERNATIONAL AIRPORT , AZ, United States (KOLS) 31-25N 110-51W 1184M
Feb 21, 2018 - 09:54 AM EST / 2018.02.21 1454 UTC
Wind: Calm:0
Visibility: 10 mile(s):0
Sky conditions: overcast
Temperature: 37.9 F (3.3 C)
Dew Point: 34.0 F (1.1 C)
Relative Humidity: 85%
Pressure (altimeter): 30.06 in. Hg (1017 hPa)
Pressure tendency: 0.03 inches (1.0 hPa) higher than three hours ago
ob: KOLS 211454Z AUTO 00000KT 10SM OVC041 03/01 A3006 RMK AO2 SLP168 T00330011 53010
cycle: 15
KFHU
Fort-Huachuca
Fort Huachuca, Libby AAF Ft Huachuca, AZ, United States (KFHU) 46-98N 110-20W
Feb 21, 2018 - 09:58 AM EST / 2018.02.21 1458 UTC
Wind: from the W (270 degrees) at 3 MPH (3 KT):0
Visibility: 10 mile(s):0
Sky conditions: mostly clear
Temperature: 38.1 F (3.4 C)
Dew Point: 27.1 F (-2.7 C)
Relative Humidity: 64%
Pressure (altimeter): 30.07 in. Hg (1018 hPa)
Pressure tendency: 0.04 inches (1.3 hPa) higher than three hours ago
ob: KFHU 211458Z AUTO 27003KT 10SM FEW043 03/M03 A3007 RMK AO2 SLP174 T00341027 52013
cycle: 15
KSAD
Safford
SAFFORD MUNICIPAL AIRPORT, AZ, United States (KSAD) 32-51N 109-38W 962M
Feb 21, 2018 - 09:51 AM EST / 2018.02.21 1451 UTC
Wind: Calm:0
Visibility: 10 mile(s):0
Sky conditions: overcast
Temperature: 36.0 F (2.2 C)
Dew Point: 30.0 F (-1.1 C)
Relative Humidity: 78%
Pressure (altimeter): 30.07 in. Hg (1018 hPa)
Pressure tendency: 0.02 inches (0.7 hPa) higher than three hours ago
ob: KSAD 211451Z AUTO 00000KT 10SM OVC070 02/M01 A3007 RMK AO2 SLP182 T00221011 53007
cycle: 15
KGBN
Gila_Bend
Gila Bend U. S. Army Airfield, AZ, United States (KGBN) 32-26N 112-41W 261M
Jul 20, 2017 - 10:57 AM EDT / 2017.07.20 1457 UTC
Wind: Calm:0
Visibility: 10 mile(s):0
Sky conditions: partly cloudy
Temperature: 86 F (30 C)
Dew Point: 68 F (20 C)
Relative Humidity: 55%
Pressure (altimeter): 29.97 in. Hg (1014 hPa)
ob: KGBN 201457Z 00000KT 10SM FEW100 SCT150 30/20 A2997 RMK A02 NO SLP
cycle: 15
KYUM
Yuma_Intl
Yuma / Yuma International, AZ, United States (KYUM) 32-39N 114-36W 63M
Nov 07, 2008 - 06:20 AM EST / 2008.11.07 1120 UTC
Wind: from the N (010 degrees) at 7 MPH (6 KT):0
Sky conditions: clear
ob: KYUM 071120Z 0712/0812 01006KT P6SM SKC FM071700 02012KT P6SM SKC FM080100 33005KT P6SM SKC
cycle: 11
KPHX
Phoenix
Phoenix, Phoenix Sky Harbor International Airport, AZ, United States (KPHX) 33-26-03N 112-03-04W 336M
Feb 21, 2018 - 09:51 AM EST / 2018.02.21 1451 UTC
Wind: from the ESE (110 degrees) at 7 MPH (6 KT):0
Visibility: 10 mile(s):0
Sky conditions: mostly clear
Temperature: 41.0 F (5.0 C)
Dew Point: 21.9 F (-5.6 C)
Relative Humidity: 46%
Pressure (altimeter): 30.08 in. Hg (1018 hPa)
Pressure tendency: 0.03 inches (0.9 hPa) higher than three hours ago
ob: KPHX 211451Z 11006KT 10SM FEW100 05/M06 A3008 RMK AO2 SLP182 T00501056 53009
cycle: 15
KPRC
Prescott_LoveField
PRESCOTT LOVE FIELD, AZ, United States (KPRC) 34-39N 112-25W 1524M
Feb 21, 2018 - 09:53 AM EST / 2018.02.21 1453 UTC
Wind: Calm:0
Visibility: 10 mile(s):0
Sky conditions: clear
Temperature: 19.9 F (-6.7 C)
Dew Point: 8.1 F (-13.3 C)
Relative Humidity: 59%
Pressure (altimeter): 30.03 in. Hg (1016 hPa)
Pressure tendency: 0.01 inches (0.4 hPa) higher than three hours ago
ob: KPRC 211453Z 00000KT 10SM CLR M07/M13 A3003 RMK AO2 SLP183 T10671133 53004
cycle: 15
KGCN
Grand_Canyon
GRAND CANYON NATL PARK AIRPORT , AZ, United States (KGCN) 35-57N 112-09W 2016M
Feb 21, 2018 - 09:54 AM EST / 2018.02.21 1454 UTC
Wind: from the E (080 degrees) at 3 MPH (3 KT):0
Visibility: 10 mile(s):0
Sky conditions: mostly clear
Temperature: 15.1 F (-9.4 C)
Dew Point: 8.1 F (-13.3 C)
Relative Humidity: 73%
Pressure (altimeter): 30.01 in. Hg (1016 hPa)
Pressure tendency: 0.00 inches (0.1 hPa) higher than three hours ago
ob: KGCN 211454Z 08003KT 10SM FEW100 M09/M13 A3001 RMK AO2 SLP209 T10941133 53001
cycle: 15
KINW
Winslow
WINSLOW MUNICIPAL AIRPORT, AZ, United States (KINW) 35-02N 110-43W 1490M
Feb 21, 2018 - 09:56 AM EST / 2018.02.21 1456 UTC
Wind: from the E (100 degrees) at 3 MPH (3 KT):0
Visibility: 10 mile(s):0
Sky conditions: clear
Temperature: 14.0 F (-10.0 C)
Dew Point: -0.9 F (-18.3 C)
Relative Humidity: 50%
Pressure (altimeter): 30.09 in. Hg (1018 hPa)
Pressure tendency: 0.02 inches (0.7 hPa) higher than three hours ago
ob: KINW 211456Z AUTO 10003KT 10SM CLR M10/M18 A3009 RMK AO2 SLP223 T11001183 51007
cycle: 15
KIFP
Bullhead_City
Bullhead City, Laughlin/Bullhead International Airport, AZ, United States (KIFP) 35-09-27N 114-33-34W
Feb 21, 2018 - 09:55 AM EST / 2018.02.21 1455 UTC
Wind: Calm:0
Visibility: 10 mile(s):0
Sky conditions: mostly clear
Temperature: 33 F (1 C)
Dew Point: 0 F (-18 C)
Relative Humidity: 22%
Pressure (altimeter): 30.14 in. Hg (1020 hPa)
ob: KIFP 211455Z AUTO 00000KT 10SM FEW120 01/M18 A3014 RMK AO2
cycle: 15
43 seconds elapsed
Crontab entry: 1,16,31,46 * * * * /var/www/html/area/area.sh >/dev/null
To get a list of weather stations please use this URL:
    http://weather.rap.ucar.edu/surface/stations.txt